sensor_id;sensor_type;location;lat;lon;timestamp;pressure;altitude;pressure_sealevel;temperature;humidity
37856;BME280;23694;43.274;26.924;2022-09-29T00:02:02;97941.22;;;18.34;71.13
37856;BME280;23694;43.274;26.924;2022-09-29T00:04:28;97940.75;;;18.30;71.73
37856;BME280;23694;43.274;26.924;2022-09-29T00:06:54;97934.81;;;18.28;71.63
37856;BME280;23694;43.274;26.924;2022-09-29T00:09:20;97932.53;;;18.25;71.81
37856;BME280;23694;43.274;26.924;2022-09-29T00:11:46;97931.06;;;18.23;71.98
37856;BME280;23694;43.274;26.924;2022-09-29T00:14:12;97930.72;;;18.18;72.60
37856;BME280;23694;43.274;26.924;2022-09-29T00:16:38;97923.59;;;18.18;72.27
37856;BME280;23694;43.274;26.924;2022-09-29T00:19:04;97927.91;;;18.19;72.22
37856;BME280;23694;43.274;26.924;2022-09-29T00:21:30;97928.22;;;18.24;71.51
37856;BME280;23694;43.274;26.924;2022-09-29T00:23:59;97927.22;;;18.25;71.95
37856;BME280;23694;43.274;26.924;2022-09-29T00:26:25;97916.47;;;18.19;71.85
37856;BME280;23694;43.274;26.924;2022-09-29T00:28:54;97928.22;;;18.24;71.83
37856;BME280;23694;43.274;26.924;2022-09-29T00:31:23;97931.69;;;18.25;71.85
37856;BME280;23694;43.274;26.924;2022-09-29T00:33:50;97924.31;;;18.12;72.44
37856;BME280;23694;43.274;26.924;2022-09-29T00:36:18;97922.50;;;18.13;72.58
37856;BME280;23694;43.274;26.924;2022-09-29T00:38:45;97918.38;;;18.10;72.90
37856;BME280;23694;43.274;26.924;2022-09-29T00:41:24;97925.56;;;18.01;73.03
37856;BME280;23694;43.274;26.924;2022-09-29T00:43:58;97921.44;;;17.99;73.27
37856;BME280;23694;43.274;26.924;2022-09-29T00:47:02;97915.13;;;18.00;73.09
37856;BME280;23694;43.274;26.924;2022-09-29T00:49:39;97919.00;;;17.89;73.57
37856;BME280;23694;43.274;26.924;2022-09-29T00:52:15;97925.66;;;17.85;74.03
37856;BME280;23694;43.274;26.924;2022-09-29T00:54:48;97924.84;;;17.85;74.12
37856;BME280;23694;43.274;26.924;2022-09-29T00:57:18;97924.38;;;17.81;73.97
37856;BME280;23694;43.274;26.924;2022-09-29T00:59:50;97921.28;;;17.69;74.36
37856;BME280;23694;43.274;26.924;2022-09-29T01:02:21;97931.00;;;17.77;74.13
37856;BME280;23694;43.274;26.924;2022-09-29T01:04:49;97928.41;;;17.69;74.40
37856;BME280;23694;43.274;26.924;2022-09-29T01:07:19;97931.72;;;17.71;74.51
37856;BME280;23694;43.274;26.924;2022-09-29T01:09:47;97933.06;;;17.67;74.66
37856;BME280;23694;43.274;26.924;2022-09-29T01:12:16;97941.72;;;17.44;75.56
37856;BME280;23694;43.274;26.924;2022-09-29T01:14:42;97939.06;;;17.44;75.21
37856;BME280;23694;43.274;26.924;2022-09-29T01:17:08;97946.69;;;17.39;75.79
37856;BME280;23694;43.274;26.924;2022-09-29T01:36:02;97951.47;;;17.44;75.38
37856;BME280;23694;43.274;26.924;2022-09-29T01:38:57;97946.34;;;17.42;75.58
37856;BME280;23694;43.274;26.924;2022-09-29T01:44:27;97947.03;;;17.36;75.90
37856;BME280;23694;43.274;26.924;2022-09-29T01:50:03;97936.63;;;17.35;75.86
37856;BME280;23694;43.274;26.924;2022-09-29T01:52:32;97935.81;;;17.34;75.74
37856;BME280;23694;43.274;26.924;2022-09-29T01:55:11;97932.47;;;17.40;75.42
37856;BME280;23694;43.274;26.924;2022-09-29T01:57:44;97928.00;;;17.41;75.49
37856;BME280;23694;43.274;26.924;2022-09-29T02:00:13;97919.06;;;17.42;75.22
37856;BME280;23694;43.274;26.924;2022-09-29T02:02:50;97918.94;;;17.35;75.63
37856;BME280;23694;43.274;26.924;2022-09-29T02:05:22;97912.34;;;17.31;75.69
37856;BME280;23694;43.274;26.924;2022-09-29T02:07:51;97912.03;;;17.26;75.95
37856;BME280;23694;43.274;26.924;2022-09-29T02:10:34;97914.84;;;17.25;75.95
37856;BME280;23694;43.274;26.924;2022-09-29T02:13:04;97909.59;;;17.17;76.17
37856;BME280;23694;43.274;26.924;2022-09-29T02:15:34;97910.25;;;17.19;76.30
37856;BME280;23694;43.274;26.924;2022-09-29T02:18:12;97919.69;;;17.13;76.66
37856;BME280;23694;43.274;26.924;2022-09-29T02:20:41;97911.44;;;17.08;76.70
37856;BME280;23694;43.274;26.924;2022-09-29T02:23:07;97909.63;;;17.08;76.78
37856;BME280;23694;43.274;26.924;2022-09-29T02:25:35;97921.06;;;17.01;77.36
37856;BME280;23694;43.274;26.924;2022-09-29T02:28:03;97919.72;;;17.05;77.29
37856;BME280;23694;43.274;26.924;2022-09-29T02:30:31;97923.66;;;17.09;77.02
37856;BME280;23694;43.274;26.924;2022-09-29T02:32:57;97921.69;;;17.03;76.56
37856;BME280;23694;43.274;26.924;2022-09-29T02:35:25;97926.34;;;17.01;76.85
37856;BME280;23694;43.274;26.924;2022-09-29T02:38:03;97925.69;;;16.99;77.55
37856;BME280;23694;43.274;26.924;2022-09-29T02:40:57;97929.97;;;17.00;77.41
37856;BME280;23694;43.274;26.924;2022-09-29T02:46:34;97926.34;;;17.01;77.64
37856;BME280;23694;43.274;26.924;2022-09-29T02:49:32;97927.84;;;16.95;77.48
37856;BME280;23694;43.274;26.924;2022-09-29T02:52:17;97932.31;;;16.95;78.01
37856;BME280;23694;43.274;26.924;2022-09-29T02:54:58;97935.28;;;16.92;78.08
37856;BME280;23694;43.274;26.924;2022-09-29T02:57:52;97938.91;;;16.83;78.79
37856;BME280;23694;43.274;26.924;2022-09-29T03:00:22;97937.94;;;16.84;78.69
37856;BME280;23694;43.274;26.924;2022-09-29T03:02:49;97935.78;;;16.87;78.29
37856;BME280;23694;43.274;26.924;2022-09-29T03:05:17;97941.56;;;16.83;78.47
37856;BME280;23694;43.274;26.924;2022-09-29T03:07:44;97934.94;;;16.87;78.30
37856;BME280;23694;43.274;26.924;2022-09-29T03:10:12;97932.97;;;16.89;78.06
37856;BME280;23694;43.274;26.924;2022-09-29T03:12:38;97937.78;;;16.93;77.58
37856;BME280;23694;43.274;26.924;2022-09-29T03:15:05;97933.66;;;16.91;78.03
37856;BME280;23694;43.274;26.924;2022-09-29T03:17:32;97933.28;;;16.86;78.56
37856;BME280;23694;43.274;26.924;2022-09-29T03:19:58;97932.47;;;16.85;78.48
37856;BME280;23694;43.274;26.924;2022-09-29T03:22:24;97929.84;;;16.77;78.99
37856;BME280;23694;43.274;26.924;2022-09-29T03:24:51;97934.13;;;16.78;78.85
37856;BME280;23694;43.274;26.924;2022-09-29T03:27:17;97937.59;;;16.78;79.23
37856;BME280;23694;43.274;26.924;2022-09-29T03:29:43;97940.41;;;16.77;79.17
37856;BME280;23694;43.274;26.924;2022-09-29T03:32:09;97934.31;;;16.76;79.11
37856;BME280;23694;43.274;26.924;2022-09-29T03:34:36;97938.44;;;16.79;79.03
37856;BME280;23694;43.274;26.924;2022-09-29T03:37:02;97934.63;;;16.82;78.45
37856;BME280;23694;43.274;26.924;2022-09-29T03:39:29;97928.69;;;16.79;79.06
37856;BME280;23694;43.274;26.924;2022-09-29T03:41:55;97925.41;;;16.69;79.33
37856;BME280;23694;43.274;26.924;2022-09-29T03:44:21;97932.50;;;16.69;79.42
37856;BME280;23694;43.274;26.924;2022-09-29T03:46:47;97927.53;;;16.74;78.73
37856;BME280;23694;43.274;26.924;2022-09-29T03:49:14;97932.69;;;16.67;79.61
37856;BME280;23694;43.274;26.924;2022-09-29T03:51:41;97930.69;;;16.69;79.65
37856;BME280;23694;43.274;26.924;2022-09-29T03:54:08;97933.66;;;16.74;79.30
37856;BME280;23694;43.274;26.924;2022-09-29T03:56:35;97933.16;;;16.71;79.98
37856;BME280;23694;43.274;26.924;2022-09-29T03:59:01;97931.50;;;16.78;79.27
37856;BME280;23694;43.274;26.924;2022-09-29T04:01:31;97929.03;;;16.76;79.19
37856;BME280;23694;43.274;26.924;2022-09-29T04:03:57;97925.56;;;16.76;78.84
37856;BME280;23694;43.274;26.924;2022-09-29T04:06:23;97933.97;;;16.79;78.86
37856;BME280;23694;43.274;26.924;2022-09-29T04:08:49;97936.13;;;16.76;79.39
37856;BME280;23694;43.274;26.924;2022-09-29T04:11:15;97926.06;;;16.71;78.89
37856;BME280;23694;43.274;26.924;2022-09-29T04:13:41;97925.56;;;16.76;79.93
37856;BME280;23694;43.274;26.924;2022-09-29T04:16:07;97932.47;;;17.01;79.24
37856;BME280;23694;43.274;26.924;2022-09-29T04:18:35;97937.97;;;17.31;77.63
37856;BME280;23694;43.274;26.924;2022-09-29T04:21:07;97941.16;;;17.65;76.25
37856;BME280;23694;43.274;26.924;2022-09-29T04:23:33;97932.47;;;17.80;74.78
37856;BME280;23694;43.274;26.924;2022-09-29T04:26:00;97946.34;;;18.35;72.38
37856;BME280;23694;43.274;26.924;2022-09-29T04:28:33;97957.69;;;18.90;70.05
37856;BME280;23694;43.274;26.924;2022-09-29T04:30:59;97950.63;;;19.41;67.89
37856;BME280;23694;43.274;26.924;2022-09-29T04:33:25;97946.06;;;20.01;66.08
37856;BME280;23694;43.274;26.924;2022-09-29T04:35:52;97953.00;;;20.59;62.81
37856;BME280;23694;43.274;26.924;2022-09-29T04:38:18;97956.91;;;21.19;59.65
37856;BME280;23694;43.274;26.924;2022-09-29T04:40:46;97953.16;;;21.76;57.54
37856;BME280;23694;43.274;26.924;2022-09-29T04:43:12;97954.34;;;22.41;54.86
37856;BME280;23694;43.274;26.924;2022-09-29T04:45:38;97970.00;;;23.03;53.51
37856;BME280;23694;43.274;26.924;2022-09-29T04:48:05;97968.44;;;23.67;50.97
37856;BME280;23694;43.274;26.924;2022-09-29T04:50:31;97976.63;;;24.23;49.94
37856;BME280;23694;43.274;26.924;2022-09-29T04:52:57;97967.09;;;24.90;47.13
37856;BME280;23694;43.274;26.924;2022-09-29T04:55:23;97974.28;;;25.40;46.30
37856;BME280;23694;43.274;26.924;2022-09-29T04:57:49;97974.22;;;26.01;44.63
37856;BME280;23694;43.274;26.924;2022-09-29T05:00:15;97974.06;;;26.56;42.42
37856;BME280;23694;43.274;26.924;2022-09-29T05:02:42;97979.31;;;27.16;41.11
37856;BME280;23694;43.274;26.924;2022-09-29T05:05:08;97988.50;;;27.78;39.74
37856;BME280;23694;43.274;26.924;2022-09-29T05:07:36;97995.34;;;28.38;38.47
37856;BME280;23694;43.274;26.924;2022-09-29T05:10:03;97993.81;;;29.04;36.84
37856;BME280;23694;43.274;26.924;2022-09-29T05:12:29;97996.78;;;29.58;35.40
37856;BME280;23694;43.274;26.924;2022-09-29T05:14:55;97992.81;;;29.87;35.25
37856;BME280;23694;43.274;26.924;2022-09-29T05:17:22;97999.69;;;30.44;33.77
37856;BME280;23694;43.274;26.924;2022-09-29T05:19:48;97993.19;;;30.99;34.04
37856;BME280;23694;43.274;26.924;2022-09-29T05:22:14;97991.72;;;31.55;32.15
37856;BME280;23694;43.274;26.924;2022-09-29T05:24:40;98000.91;;;32.11;32.02
37856;BME280;23694;43.274;26.924;2022-09-29T05:27:06;98002.09;;;32.36;30.95
37856;BME280;23694;43.274;26.924;2022-09-29T05:29:32;97998.91;;;32.64;30.76
37856;BME280;23694;43.274;26.924;2022-09-29T05:31:58;98009.22;;;32.67;30.29
37856;BME280;23694;43.274;26.924;2022-09-29T05:34:24;97998.13;;;32.84;31.03
37856;BME280;23694;43.274;26.924;2022-09-29T05:36:51;97999.47;;;33.07;29.79
37856;BME280;23694;43.274;26.924;2022-09-29T05:39:17;97998.09;;;33.45;29.40
37856;BME280;23694;43.274;26.924;2022-09-29T05:41:46;98002.44;;;33.05;29.92
37856;BME280;23694;43.274;26.924;2022-09-29T05:44:12;98009.22;;;33.44;29.64
37856;BME280;23694;43.274;26.924;2022-09-29T05:46:39;98005.59;;;33.79;29.36
37856;BME280;23694;43.274;26.924;2022-09-29T05:49:06;98005.84;;;33.97;29.04
37856;BME280;23694;43.274;26.924;2022-09-29T05:51:32;98001.56;;;34.30;28.19
37856;BME280;23694;43.274;26.924;2022-09-29T05:53:58;98004.91;;;34.67;27.72
37856;BME280;23694;43.274;26.924;2022-09-29T05:56:26;98005.41;;;35.08;27.93
37856;BME280;23694;43.274;26.924;2022-09-29T05:58:52;98007.25;;;35.46;26.84
37856;BME280;23694;43.274;26.924;2022-09-29T06:01:21;97995.63;;;35.12;26.88
37856;BME280;23694;43.274;26.924;2022-09-29T06:03:47;97997.09;;;35.28;27.04
37856;BME280;23694;43.274;26.924;2022-09-29T06:06:21;97997.69;;;34.52;28.25
37856;BME280;23694;43.274;26.924;2022-09-29T06:08:48;97990.31;;;34.03;27.98
37856;BME280;23694;43.274;26.924;2022-09-29T06:11:26;97980.97;;;33.50;28.79
37856;BME280;23694;43.274;26.924;2022-09-29T06:13:54;97981.63;;;31.93;30.69
37856;BME280;23694;43.274;26.924;2022-09-29T06:16:22;97984.22;;;29.30;35.25
37856;BME280;23694;43.274;26.924;2022-09-29T06:18:49;97993.84;;;28.02;38.05
37856;BME280;23694;43.274;26.924;2022-09-29T06:21:20;97993.91;;;26.55;41.22
37856;BME280;23694;43.274;26.924;2022-09-29T06:23:49;97997.84;;;25.13;44.67
37856;BME280;23694;43.274;26.924;2022-09-29T06:26:17;97994.91;;;24.26;46.51
37856;BME280;23694;43.274;26.924;2022-09-29T06:28:43;97990.72;;;23.41;50.40
37856;BME280;23694;43.274;26.924;2022-09-29T06:31:11;97993.16;;;22.70;53.49
37856;BME280;23694;43.274;26.924;2022-09-29T06:33:38;97991.31;;;22.44;55.54
37856;BME280;23694;43.274;26.924;2022-09-29T06:36:20;97990.28;;;22.38;56.50
37856;BME280;23694;43.274;26.924;2022-09-29T06:39:07;97996.00;;;22.35;56.72
37856;BME280;23694;43.274;26.924;2022-09-29T06:41:34;98000.16;;;22.71;56.41
37856;BME280;23694;43.274;26.924;2022-09-29T06:44:00;97998.53;;;23.16;54.64
37856;BME280;23694;43.274;26.924;2022-09-29T06:46:26;97996.28;;;23.13;54.45
37856;BME280;23694;43.274;26.924;2022-09-29T06:48:54;97992.38;;;23.09;55.10
37856;BME280;23694;43.274;26.924;2022-09-29T06:51:21;97988.69;;;23.17;55.18
37856;BME280;23694;43.274;26.924;2022-09-29T06:53:50;97982.28;;;23.31;54.10
37856;BME280;23694;43.274;26.924;2022-09-29T06:56:17;97990.34;;;23.11;54.82
37856;BME280;23694;43.274;26.924;2022-09-29T06:58:45;97976.53;;;23.21;54.47
37856;BME280;23694;43.274;26.924;2022-09-29T07:01:11;97981.66;;;23.55;54.01
37856;BME280;23694;43.274;26.924;2022-09-29T07:03:38;97984.13;;;24.08;53.32
37856;BME280;23694;43.274;26.924;2022-09-29T07:06:05;97983.03;;;24.54;52.13
37856;BME280;23694;43.274;26.924;2022-09-29T07:08:32;97986.78;;;24.78;50.95
37856;BME280;23694;43.274;26.924;2022-09-29T07:11:01;97994.66;;;24.66;49.19
37856;BME280;23694;43.274;26.924;2022-09-29T07:13:31;97991.53;;;24.06;51.05
37856;BME280;23694;43.274;26.924;2022-09-29T07:16:03;97995.50;;;23.90;51.83
37856;BME280;23694;43.274;26.924;2022-09-29T07:18:33;97993.50;;;23.73;50.77
37856;BME280;23694;43.274;26.924;2022-09-29T07:21:00;97998.50;;;23.62;51.16
37856;BME280;23694;43.274;26.924;2022-09-29T07:23:26;98005.09;;;23.20;52.56
37856;BME280;23694;43.274;26.924;2022-09-29T07:25:52;98002.41;;;22.48;55.20
37856;BME280;23694;43.274;26.924;2022-09-29T07:28:18;98011.22;;;22.41;56.34
37856;BME280;23694;43.274;26.924;2022-09-29T07:30:46;98009.19;;;22.57;56.39
37856;BME280;23694;43.274;26.924;2022-09-29T07:33:12;98010.22;;;22.69;55.39
37856;BME280;23694;43.274;26.924;2022-09-29T07:35:38;98007.75;;;22.67;55.57
37856;BME280;23694;43.274;26.924;2022-09-29T07:38:04;98000.84;;;22.86;55.32
37856;BME280;23694;43.274;26.924;2022-09-29T07:40:30;97997.72;;;23.22;53.78
37856;BME280;23694;43.274;26.924;2022-09-29T07:42:58;98001.41;;;23.41;52.59
37856;BME280;23694;43.274;26.924;2022-09-29T07:45:24;98009.59;;;23.59;51.64
37856;BME280;23694;43.274;26.924;2022-09-29T07:47:50;98001.38;;;23.61;51.80
37856;BME280;23694;43.274;26.924;2022-09-29T07:50:16;98002.81;;;23.57;51.56
37856;BME280;23694;43.274;26.924;2022-09-29T07:52:42;98017.81;;;23.64;51.40
37856;BME280;23694;43.274;26.924;2022-09-29T07:55:09;98014.44;;;23.82;51.15
37856;BME280;23694;43.274;26.924;2022-09-29T07:57:59;98024.19;;;24.21;50.78
37856;BME280;23694;43.274;26.924;2022-09-29T08:00:27;98019.22;;;24.63;49.62
37856;BME280;23694;43.274;26.924;2022-09-29T08:02:58;98013.19;;;24.67;48.63
37856;BME280;23694;43.274;26.924;2022-09-29T08:05:24;98021.50;;;24.59;48.88
37856;BME280;23694;43.274;26.924;2022-09-29T08:07:52;98019.16;;;24.70;49.12
37856;BME280;23694;43.274;26.924;2022-09-29T08:10:22;98017.13;;;24.96;48.35
37856;BME280;23694;43.274;26.924;2022-09-29T08:12:48;98018.44;;;25.37;47.26
37856;BME280;23694;43.274;26.924;2022-09-29T08:15:14;98018.53;;;25.49;46.09
37856;BME280;23694;43.274;26.924;2022-09-29T08:17:43;98023.25;;;25.72;46.04
37856;BME280;23694;43.274;26.924;2022-09-29T08:20:09;98023.88;;;24.74;47.02
37856;BME280;23694;43.274;26.924;2022-09-29T08:22:35;98029.59;;;24.84;46.68
37856;BME280;23694;43.274;26.924;2022-09-29T08:25:02;98026.50;;;25.12;45.26
37856;BME280;23694;43.274;26.924;2022-09-29T08:27:28;98029.97;;;25.38;44.09
37856;BME280;23694;43.274;26.924;2022-09-29T08:29:54;98026.28;;;25.14;43.76
37856;BME280;23694;43.274;26.924;2022-09-29T08:32:22;98028.72;;;25.15;43.74
37856;BME280;23694;43.274;26.924;2022-09-29T08:34:49;98028.59;;;25.28;43.47
37856;BME280;23694;43.274;26.924;2022-09-29T08:37:16;98023.66;;;25.07;43.57
37856;BME280;23694;43.274;26.924;2022-09-29T08:39:44;98019.25;;;25.38;43.00
37856;BME280;23694;43.274;26.924;2022-09-29T08:44:57;98010.41;;;25.55;42.16
37856;BME280;23694;43.274;26.924;2022-09-29T08:47:33;98013.03;;;25.80;40.66
37856;BME280;23694;43.274;26.924;2022-09-29T08:50:10;98010.78;;;26.14;40.01
37856;BME280;23694;43.274;26.924;2022-09-29T08:52:42;98012.34;;;26.21;39.43
37856;BME280;23694;43.274;26.924;2022-09-29T08:57:45;98004.88;;;26.53;39.08
37856;BME280;23694;43.274;26.924;2022-09-29T09:00:13;98005.53;;;26.79;38.17
37856;BME280;23694;43.274;26.924;2022-09-29T09:11:39;98017.06;;;27.21;35.93
37856;BME280;23694;43.274;26.924;2022-09-29T09:25:06;98028.66;;;27.68;34.43
37856;BME280;23694;43.274;26.924;2022-09-29T09:27:43;98028.50;;;27.75;33.54
37856;BME280;23694;43.274;26.924;2022-09-29T09:30:18;98026.63;;;27.87;33.95
37856;BME280;23694;43.274;26.924;2022-09-29T09:33:08;98020.22;;;27.30;34.08
37856;BME280;23694;43.274;26.924;2022-09-29T09:35:48;98026.91;;;27.39;34.30
37856;BME280;23694;43.274;26.924;2022-09-29T09:38:49;98026.06;;;28.25;33.03
37856;BME280;23694;43.274;26.924;2022-09-29T09:41:23;98028.66;;;28.20;31.95
37856;BME280;23694;43.274;26.924;2022-09-29T09:43:56;98030.50;;;28.31;31.88
37856;BME280;23694;43.274;26.924;2022-09-29T09:46:50;98021.72;;;28.81;31.78
37856;BME280;23694;43.274;26.924;2022-09-29T09:49:33;98020.75;;;29.04;31.77
37856;BME280;23694;43.274;26.924;2022-09-29T09:54:53;98016.50;;;29.08;30.96
37856;BME280;23694;43.274;26.924;2022-09-29T10:00:32;98011.50;;;29.50;31.39
37856;BME280;23694;43.274;26.924;2022-09-29T10:03:04;98020.56;;;29.61;31.04
37856;BME280;23694;43.274;26.924;2022-09-29T10:05:34;98020.59;;;29.11;31.87
37856;BME280;23694;43.274;26.924;2022-09-29T10:08:38;98021.66;;;29.10;32.69
37856;BME280;23694;43.274;26.924;2022-09-29T10:11:03;98017.97;;;28.99;33.03
37856;BME280;23694;43.274;26.924;2022-09-29T10:13:30;98025.94;;;28.32;34.41
37856;BME280;23694;43.274;26.924;2022-09-29T10:16:17;98021.38;;;28.32;34.03
37856;BME280;23694;43.274;26.924;2022-09-29T10:18:48;98016.38;;;28.13;34.76
37856;BME280;23694;43.274;26.924;2022-09-29T10:21:20;98019.75;;;27.56;35.82
37856;BME280;23694;43.274;26.924;2022-09-29T10:23:52;98013.78;;;27.54;36.14
37856;BME280;23694;43.274;26.924;2022-09-29T10:26:23;98011.78;;;27.14;36.87
37856;BME280;23694;43.274;26.924;2022-09-29T10:29:00;98004.06;;;27.06;36.89
37856;BME280;23694;43.274;26.924;2022-09-29T10:31:28;98000.13;;;27.32;36.53
37856;BME280;23694;43.274;26.924;2022-09-29T10:36:49;98001.06;;;27.61;36.24
37856;BME280;23694;43.274;26.924;2022-09-29T10:39:45;97992.28;;;27.42;36.25
37856;BME280;23694;43.274;26.924;2022-09-29T10:42:23;97994.13;;;27.77;35.79
37856;BME280;23694;43.274;26.924;2022-09-29T10:45:13;98000.34;;;27.54;36.91
37856;BME280;23694;43.274;26.924;2022-09-29T10:47:41;97999.38;;;27.60;36.26
37856;BME280;23694;43.274;26.924;2022-09-29T10:50:19;97991.34;;;28.12;36.00
37856;BME280;23694;43.274;26.924;2022-09-29T10:52:57;97996.91;;;28.51;35.17
37856;BME280;23694;43.274;26.924;2022-09-29T10:55:29;97984.66;;;29.05;33.93
37856;BME280;23694;43.274;26.924;2022-09-29T10:57:59;97991.75;;;28.94;34.05
37856;BME280;23694;43.274;26.924;2022-09-29T11:00:33;97986.78;;;28.41;34.78
37856;BME280;23694;43.274;26.924;2022-09-29T11:03:27;97983.13;;;28.47;35.24
37856;BME280;23694;43.274;26.924;2022-09-29T11:05:57;97974.19;;;29.09;34.11
37856;BME280;23694;43.274;26.924;2022-09-29T11:08:25;97978.59;;;29.31;34.10
37856;BME280;23694;43.274;26.924;2022-09-29T11:11:23;97975.03;;;28.92;35.10
37856;BME280;23694;43.274;26.924;2022-09-29T11:13:49;97978.88;;;28.23;36.12
37856;BME280;23694;43.274;26.924;2022-09-29T11:16:24;97974.97;;;27.50;37.32
37856;BME280;23694;43.274;26.924;2022-09-29T11:19:08;97973.41;;;27.77;37.46
37856;BME280;23694;43.274;26.924;2022-09-29T11:21:52;97962.47;;;27.96;37.16
37856;BME280;23694;43.274;26.924;2022-09-29T11:30:00;97959.56;;;27.34;38.23
37856;BME280;23694;43.274;26.924;2022-09-29T11:32:56;97961.22;;;27.87;37.68
37856;BME280;23694;43.274;26.924;2022-09-29T11:40:58;97950.97;;;27.72;36.78
37856;BME280;23694;43.274;26.924;2022-09-29T11:49:27;97951.44;;;27.57;37.75
37856;BME280;23694;43.274;26.924;2022-09-29T12:00:02;97955.25;;;27.85;36.98
37856;BME280;23694;43.274;26.924;2022-09-29T12:13:18;97949.19;;;27.77;34.46
37856;BME280;23694;43.274;26.924;2022-09-29T12:16:07;97940.06;;;27.78;33.71
37856;BME280;23694;43.274;26.924;2022-09-29T12:18:49;97953.00;;;27.93;34.17
37856;BME280;23694;43.274;26.924;2022-09-29T12:21:36;97949.06;;;27.84;34.25
37856;BME280;23694;43.274;26.924;2022-09-29T12:24:11;97946.81;;;28.21;33.23
37856;BME280;23694;43.274;26.924;2022-09-29T12:26:39;97961.28;;;28.03;33.42
37856;BME280;23694;43.274;26.924;2022-09-29T12:31:51;97946.00;;;28.99;32.72
37856;BME280;23694;43.274;26.924;2022-09-29T12:34:45;97942.28;;;29.22;32.00
37856;BME280;23694;43.274;26.924;2022-09-29T12:37:36;97954.66;;;29.18;32.36
37856;BME280;23694;43.274;26.924;2022-09-29T12:40:21;97946.59;;;29.01;31.86
37856;BME280;23694;43.274;26.924;2022-09-29T12:45:40;97940.75;;;29.26;31.74
37856;BME280;23694;43.274;26.924;2022-09-29T12:48:18;97941.56;;;29.44;32.19
37856;BME280;23694;43.274;26.924;2022-09-29T12:53:50;97944.19;;;29.82;30.91
37856;BME280;23694;43.274;26.924;2022-09-29T12:56:23;97951.47;;;29.82;31.00
37856;BME280;23694;43.274;26.924;2022-09-29T12:59:01;97950.97;;;29.85;31.06
37856;BME280;23694;43.274;26.924;2022-09-29T13:01:32;97950.78;;;29.70;30.75
37856;BME280;23694;43.274;26.924;2022-09-29T13:25:40;97957.91;;;28.53;31.69
37856;BME280;23694;43.274;26.924;2022-09-29T13:28:27;97958.38;;;28.50;31.73
37856;BME280;23694;43.274;26.924;2022-09-29T13:31:10;97946.59;;;28.68;31.44
37856;BME280;23694;43.274;26.924;2022-09-29T13:33:39;97947.13;;;28.36;31.98
37856;BME280;23694;43.274;26.924;2022-09-29T13:36:06;97946.13;;;28.42;31.03
37856;BME280;23694;43.274;26.924;2022-09-29T13:38:36;97950.41;;;28.72;31.08
37856;BME280;23694;43.274;26.924;2022-09-29T13:51:51;97946.81;;;28.66;28.10
37856;BME280;23694;43.274;26.924;2022-09-29T13:54:26;97945.81;;;28.56;27.42
37856;BME280;23694;43.274;26.924;2022-09-29T14:00:14;97953.09;;;28.55;27.92
37856;BME280;23694;43.274;26.924;2022-09-29T14:03:02;97953.91;;;28.56;27.46
37856;BME280;23694;43.274;26.924;2022-09-29T14:18:40;97943.41;;;28.71;27.85
37856;BME280;23694;43.274;26.924;2022-09-29T14:21:11;97945.78;;;28.67;27.99
37856;BME280;23694;43.274;26.924;2022-09-29T14:26:49;97954.38;;;28.53;27.79
37856;BME280;23694;43.274;26.924;2022-09-29T14:29:31;97945.25;;;28.54;28.01
37856;BME280;23694;43.274;26.924;2022-09-29T14:32:00;97946.06;;;28.54;27.88
37856;BME280;23694;43.274;26.924;2022-09-29T14:34:29;97950.47;;;28.60;27.93
37856;BME280;23694;43.274;26.924;2022-09-29T14:36:57;97947.56;;;28.62;28.09
37856;BME280;23694;43.274;26.924;2022-09-29T14:39:25;97954.19;;;28.71;28.16
37856;BME280;23694;43.274;26.924;2022-09-29T14:41:52;97950.81;;;28.64;28.83
37856;BME280;23694;43.274;26.924;2022-09-29T14:44:25;97944.22;;;28.71;28.51
37856;BME280;23694;43.274;26.924;2022-09-29T14:47:36;97953.69;;;28.74;28.81
37856;BME280;23694;43.274;26.924;2022-09-29T15:01:31;97965.97;;;28.36;30.74
37856;BME280;23694;43.274;26.924;2022-09-29T15:04:05;97966.22;;;28.35;31.27
37856;BME280;23694;43.274;26.924;2022-09-29T15:06:32;97965.41;;;28.23;31.91
37856;BME280;23694;43.274;26.924;2022-09-29T15:09:15;97973.66;;;28.16;32.97
37856;BME280;23694;43.274;26.924;2022-09-29T15:11:44;97976.38;;;28.04;33.33
37856;BME280;23694;43.274;26.924;2022-09-29T15:14:31;97979.13;;;27.81;33.82
37856;BME280;23694;43.274;26.924;2022-09-29T15:22:40;97973.34;;;27.14;35.75
37856;BME280;23694;43.274;26.924;2022-09-29T15:27:53;97984.63;;;26.69;36.81
37856;BME280;23694;43.274;26.924;2022-09-29T15:30:21;97982.00;;;26.51;37.38
37856;BME280;23694;43.274;26.924;2022-09-29T15:32:49;97991.34;;;26.30;38.38
37856;BME280;23694;43.274;26.924;2022-09-29T15:35:22;97996.19;;;26.10;39.15
37856;BME280;23694;43.274;26.924;2022-09-29T15:40:18;97990.41;;;25.76;40.18
37856;BME280;23694;43.274;26.924;2022-09-29T15:42:45;98000.44;;;25.63;40.83
37856;BME280;23694;43.274;26.924;2022-09-29T15:45:20;98007.66;;;25.44;41.32
37856;BME280;23694;43.274;26.924;2022-09-29T15:47:47;98003.19;;;25.13;42.14
37856;BME280;23694;43.274;26.924;2022-09-29T15:50:22;98014.63;;;25.02;42.45
37856;BME280;23694;43.274;26.924;2022-09-29T15:52:49;98010.63;;;24.86;42.75
37856;BME280;23694;43.274;26.924;2022-09-29T15:55:20;98009.03;;;24.78;43.49
37856;BME280;23694;43.274;26.924;2022-09-29T15:57:50;98011.59;;;24.60;43.96
37856;BME280;23694;43.274;26.924;2022-09-29T16:03:18;98010.88;;;24.46;43.89
37856;BME280;23694;43.274;26.924;2022-09-29T16:06:00;98021.50;;;24.28;44.30
37856;BME280;23694;43.274;26.924;2022-09-29T16:08:28;98029.34;;;24.16;44.58
37856;BME280;23694;43.274;26.924;2022-09-29T16:11:01;98030.84;;;23.99;45.20
37856;BME280;23694;43.274;26.924;2022-09-29T16:13:35;98031.06;;;23.97;45.41